createdAt,value
2022-09-13T00:00:58.841Z,15.70
2022-09-13T00:06:14.110Z,15.60
2022-09-13T00:11:22.228Z,15.60
2022-09-13T00:16:29.492Z,15.60
2022-09-13T00:21:32.899Z,15.60
2022-09-13T00:26:37.602Z,15.60
2022-09-13T00:31:41.071Z,15.50
2022-09-13T00:36:45.966Z,15.50
2022-09-13T00:41:50.741Z,15.40
2022-09-13T00:46:54.305Z,15.40
2022-09-13T00:52:01.207Z,15.40
2022-09-13T00:57:06.737Z,15.40
2022-09-13T01:02:10.666Z,15.30
2022-09-13T01:07:16.297Z,15.20
2022-09-13T01:12:31.970Z,15.10
2022-09-13T01:17:36.120Z,15.10
2022-09-13T01:23:05.612Z,15.10
2022-09-13T01:28:34.094Z,15.00
2022-09-13T01:33:54.708Z,15.00
2022-09-13T01:39:04.260Z,15.00
2022-09-13T01:44:16.301Z,15.00
2022-09-13T01:49:26.480Z,14.90
2022-09-13T01:54:39.143Z,14.90
2022-09-13T01:59:51.618Z,14.80
2022-09-13T02:05:05.069Z,14.80
2022-09-13T02:10:14.249Z,14.80
2022-09-13T02:15:21.468Z,14.70
2022-09-13T02:20:30.064Z,14.70
2022-09-13T02:25:36.196Z,14.60
2022-09-13T02:30:44.401Z,14.60
2022-09-13T02:35:55.303Z,14.60
2022-09-13T02:41:02.990Z,14.60
2022-09-13T02:46:17.534Z,14.60
2022-09-13T02:51:31.416Z,14.50
2022-09-13T02:56:42.685Z,14.60
2022-09-13T03:01:50.429Z,14.40
2022-09-13T03:06:55.535Z,14.40
2022-09-13T03:12:13.738Z,14.30
2022-09-13T03:17:36.049Z,14.20
2022-09-13T03:23:14.110Z,14.20
2022-09-13T03:28:26.078Z,14.20
2022-09-13T03:33:36.424Z,14.20
2022-09-13T03:38:46.605Z,14.10
2022-09-13T03:43:53.857Z,14.10
2022-09-13T03:48:58.705Z,14.10
2022-09-13T03:54:06.382Z,14.10
2022-09-13T03:59:09.756Z,14.10
2022-09-13T04:04:13.163Z,14.10
2022-09-13T04:09:18.101Z,14.00
2022-09-13T04:14:21.850Z,14.00
2022-09-13T04:19:26.530Z,14.00
2022-09-13T04:24:32.116Z,14.00
2022-09-13T04:29:35.500Z,14.00
2022-09-13T04:34:39.104Z,14.00
2022-09-13T04:39:44.407Z,14.00
2022-09-13T04:44:50.131Z,14.00
2022-09-13T04:49:53.440Z,14.00
2022-09-13T04:55:01.457Z,14.00
2022-09-13T05:00:06.319Z,14.00
2022-09-13T05:05:10.793Z,14.00
2022-09-13T05:10:19.405Z,14.00
2022-09-13T05:15:23.325Z,14.00
2022-09-13T05:20:26.727Z,14.00
2022-09-13T05:25:31.494Z,14.10
2022-09-13T05:30:37.453Z,14.10
2022-09-13T05:35:43.008Z,14.20
2022-09-13T05:40:48.646Z,14.20
2022-09-13T05:45:52.096Z,14.30
2022-09-13T05:50:58.290Z,14.40
2022-09-13T05:56:04.001Z,14.40
2022-09-13T06:01:07.743Z,14.50
2022-09-13T06:06:12.203Z,14.50
2022-09-13T06:11:17.499Z,14.50
2022-09-13T06:16:21.528Z,14.50
2022-09-13T06:21:28.951Z,14.60
2022-09-13T06:26:35.023Z,14.80
2022-09-13T06:31:43.715Z,14.90
2022-09-13T06:36:47.407Z,15.00
2022-09-13T06:41:52.066Z,15.10
2022-09-13T06:46:55.434Z,15.20
2022-09-13T06:51:59.081Z,15.30
2022-09-13T06:57:04.446Z,15.40
2022-09-13T07:02:08.688Z,15.60
2022-09-13T07:07:12.210Z,15.70
2022-09-13T07:12:20.452Z,15.80
2022-09-13T07:17:24.841Z,15.90
2022-09-13T07:22:30.253Z,16.10
2022-09-13T07:27:34.934Z,16.20
2022-09-13T07:32:38.245Z,16.40
2022-09-13T07:37:42.434Z,16.60
2022-09-13T07:42:47.459Z,16.70
2022-09-13T07:47:53.703Z,16.90
2022-09-13T07:52:57.296Z,16.90
2022-09-13T07:58:01.952Z,17.10
2022-09-13T08:03:05.394Z,17.20
2022-09-13T08:08:08.737Z,17.30
2022-09-13T08:13:13.911Z,17.40
2022-09-13T08:18:17.722Z,17.60
2022-09-13T08:23:21.662Z,17.60
2022-09-13T08:28:27.811Z,17.70
2022-09-13T08:33:31.370Z,17.80
2022-09-13T08:38:35.045Z,17.90
2022-09-13T08:43:50.488Z,18.10
2022-09-13T08:48:59.842Z,18.20
2022-09-13T08:54:04.616Z,18.30
2022-09-13T08:59:27.731Z,18.40
2022-09-13T09:04:40.848Z,18.60
2022-09-13T09:09:49.530Z,18.70
2022-09-13T09:15:02.188Z,18.90
2022-09-13T09:20:18.546Z,19.00
2022-09-13T09:25:24.043Z,19.10
2022-09-13T09:30:38.266Z,19.30
2022-09-13T09:35:53.162Z,19.40
2022-09-13T09:40:56.602Z,19.60
2022-09-13T09:46:05.421Z,19.80
2022-09-13T09:51:11.639Z,20.00
2022-09-13T09:56:25.328Z,20.10
2022-09-13T10:01:32.523Z,20.20
2022-09-13T10:06:38.350Z,20.20
2022-09-13T10:11:46.390Z,20.30
2022-09-13T10:17:05.320Z,20.30
2022-09-13T10:22:13.117Z,20.30
2022-09-13T10:27:39.352Z,20.20
2022-09-13T10:32:55.800Z,20.20
2022-09-13T10:37:59.430Z,20.20
2022-09-13T10:43:05.402Z,20.20
2022-09-13T10:48:15.981Z,20.30
2022-09-13T10:53:34.433Z,20.40
2022-09-13T10:58:37.937Z,20.50
2022-09-13T11:04:32.654Z,20.60
2022-09-13T11:09:44.398Z,20.70
2022-09-13T11:15:02.530Z,20.80
2022-09-13T11:20:30.273Z,20.90
2022-09-13T11:25:50.116Z,20.90
2022-09-13T11:31:09.249Z,21.00
2022-09-13T11:36:26.708Z,21.10
2022-09-13T11:41:43.097Z,21.20
2022-09-13T11:46:52.017Z,21.30
2022-09-13T11:52:02.831Z,21.30
2022-09-13T11:57:11.810Z,21.40
2022-09-13T12:02:22.631Z,21.50
2022-09-13T12:07:38.475Z,21.60
2022-09-13T12:12:44.409Z,21.60
2022-09-13T12:17:52.013Z,21.60
2022-09-13T12:22:56.147Z,21.60
2022-09-13T12:28:09.091Z,21.60
2022-09-13T12:33:16.087Z,21.50
2022-09-13T12:39:01.213Z,21.60
2022-09-13T12:44:35.132Z,21.60
2022-09-13T12:50:01.740Z,21.60
2022-09-13T12:55:47.788Z,21.60
2022-09-13T13:01:09.886Z,21.60
2022-09-13T13:06:26.668Z,21.60
2022-09-13T13:11:41.674Z,21.60
2022-09-13T13:16:48.434Z,21.60
2022-09-13T13:21:51.820Z,21.60
2022-09-13T13:26:57.552Z,21.70
2022-09-13T13:32:12.911Z,21.70
2022-09-13T13:37:44.102Z,21.80
2022-09-13T13:42:48.061Z,21.80
2022-09-13T13:48:12.623Z,21.90
2022-09-13T13:53:23.273Z,21.90
2022-09-13T13:58:34.683Z,22.00
2022-09-13T14:04:11.578Z,22.00
2022-09-13T14:09:33.197Z,22.00
2022-09-13T14:14:57.613Z,22.00
2022-09-13T14:20:06.505Z,22.10
2022-09-13T14:25:24.612Z,22.10
2022-09-13T14:30:32.542Z,22.10
2022-09-13T14:35:39.257Z,22.00
2022-09-13T14:40:42.732Z,22.00
2022-09-13T14:45:48.543Z,22.00
2022-09-13T14:50:57.970Z,22.00
2022-09-13T14:56:04.641Z,22.00
2022-09-13T15:01:11.768Z,22.00
2022-09-13T15:06:26.060Z,22.00
2022-09-13T15:11:32.834Z,21.90
2022-09-13T15:16:36.200Z,22.00
2022-09-13T15:21:41.245Z,23.00
2022-09-13T15:26:44.525Z,23.30
2022-09-13T15:31:47.922Z,23.30
2022-09-13T15:37:09.813Z,23.20
2022-09-13T15:42:13.248Z,23.10
2022-09-13T15:47:19.647Z,23.00
2022-09-13T15:52:24.363Z,22.90
2022-09-13T15:57:31.153Z,22.80
2022-09-13T16:02:35.689Z,22.80
2022-09-13T16:07:41.029Z,22.70
2022-09-13T16:12:44.378Z,22.60
2022-09-13T16:17:47.748Z,22.60
2022-09-13T16:22:52.481Z,22.60
2022-09-13T16:27:55.776Z,22.50
2022-09-13T16:32:59.321Z,22.50
2022-09-13T16:38:04.042Z,22.30
2022-09-13T16:44:32.597Z,22.20
2022-09-13T16:49:36.142Z,22.20
2022-09-13T16:54:39.681Z,22.10
2022-09-13T16:59:46.809Z,22.10
2022-09-13T17:04:50.426Z,22.10
2022-09-13T17:09:54.030Z,22.00
2022-09-13T17:14:59.119Z,21.90
2022-09-13T17:20:03.647Z,21.90
2022-09-13T17:25:08.599Z,21.80
2022-09-13T17:30:14.897Z,21.80
2022-09-13T17:35:18.538Z,21.70
2022-09-13T17:40:21.940Z,21.70
2022-09-13T17:45:27.309Z,21.70
2022-09-13T17:50:30.693Z,21.60
2022-09-13T17:55:33.943Z,21.60
2022-09-13T18:00:38.625Z,21.50
2022-09-13T18:05:42.250Z,21.50
2022-09-13T18:11:10.189Z,21.40
2022-09-13T18:16:13.502Z,21.30
2022-09-13T18:21:21.116Z,21.20
2022-09-13T18:26:25.759Z,21.20
2022-09-13T18:31:32.165Z,21.10
2022-09-13T18:36:36.827Z,21.10
2022-09-13T18:41:41.362Z,21.10
2022-09-13T18:46:46.911Z,21.00
2022-09-13T18:51:50.504Z,20.90
2022-09-13T18:56:55.789Z,20.90
2022-09-13T19:02:00.578Z,20.80
2022-09-13T19:07:06.649Z,20.90
2022-09-13T19:12:09.980Z,20.80
2022-09-13T19:17:15.101Z,20.70
2022-09-13T19:22:18.492Z,20.70
2022-09-13T19:27:22.359Z,20.60
2022-09-13T19:32:27.061Z,20.60
2022-09-13T19:37:30.415Z,20.60
2022-09-13T19:42:33.690Z,20.50
2022-09-13T19:48:49.086Z,20.50
2022-09-13T19:53:03.242Z,20.50
2022-09-13T19:58:06.814Z,20.50
2022-09-13T20:03:11.634Z,20.50
2022-09-13T20:08:15.860Z,20.50
2022-09-13T20:13:19.667Z,20.50
2022-09-13T20:18:25.211Z,20.40
2022-09-13T20:23:29.019Z,20.40
2022-09-13T20:28:32.625Z,20.40
2022-09-13T20:33:40.628Z,20.30
2022-09-13T20:38:48.301Z,20.30
2022-09-13T20:43:52.634Z,20.20
2022-09-13T20:48:57.289Z,20.10
2022-09-13T20:54:01.317Z,20.10
2022-09-13T20:59:05.487Z,20.00
2022-09-13T21:04:10.513Z,20.00
2022-09-13T21:09:14.057Z,19.90
2022-09-13T21:14:17.448Z,19.90
2022-09-13T21:19:22.388Z,19.90
2022-09-13T21:24:25.760Z,19.90
2022-09-13T21:29:29.316Z,19.90
2022-09-13T21:34:34.325Z,19.80
2022-09-13T21:39:37.780Z,19.80
2022-09-13T21:44:41.371Z,19.80
2022-09-13T21:49:46.298Z,19.80
2022-09-13T21:54:49.578Z,19.70
2022-09-13T21:59:53.013Z,19.60
2022-09-13T22:04:57.799Z,19.60
2022-09-13T22:10:01.267Z,19.60
2022-09-13T22:15:04.943Z,19.60
2022-09-13T22:20:10.899Z,19.50
2022-09-13T22:25:14.242Z,19.50
2022-09-13T22:30:17.624Z,19.40
2022-09-13T22:35:22.309Z,19.30
2022-09-13T22:40:25.649Z,19.30
2022-09-13T22:45:29.313Z,19.20
2022-09-13T22:50:33.995Z,19.10
2022-09-13T22:55:37.273Z,19.10
2022-09-13T23:00:40.974Z,19.10
2022-09-13T23:05:52.660Z,18.90
2022-09-13T23:10:56.418Z,18.90
2022-09-13T23:16:03.115Z,18.80
2022-09-13T23:21:08.273Z,18.80
2022-09-13T23:26:17.398Z,18.70
2022-09-13T23:31:22.045Z,18.70
2022-09-13T23:36:29.413Z,18.70
2022-09-13T23:41:34.163Z,18.70
2022-09-13T23:46:37.546Z,18.70
2022-09-13T23:51:42.236Z,18.70
2022-09-13T23:56:45.785Z,18.60
